sensor_id;sensor_type;location;lat;lon;timestamp;temperature;humidity
17938;DHT22;16051;53.024;8.630;2022-09-03T00:02:41;18.20;77.10
17938;DHT22;16051;53.024;8.630;2022-09-03T00:06:49;18.10;77.40
17938;DHT22;16051;53.024;8.630;2022-09-03T00:11:00;18.00;77.70
17938;DHT22;16051;53.024;8.630;2022-09-03T00:15:17;18.00;78.00
17938;DHT22;16051;53.024;8.630;2022-09-03T00:19:27;17.90;78.30
17938;DHT22;16051;53.024;8.630;2022-09-03T00:23:34;17.80;78.50
17938;DHT22;16051;53.024;8.630;2022-09-03T00:27:42;17.80;79.00
17938;DHT22;16051;53.024;8.630;2022-09-03T00:31:52;17.70;79.20
17938;DHT22;16051;53.024;8.630;2022-09-03T00:36:05;17.60;79.10
17938;DHT22;16051;53.024;8.630;2022-09-03T00:40:31;17.60;79.40
17938;DHT22;16051;53.024;8.630;2022-09-03T00:45:02;17.50;80.00
17938;DHT22;16051;53.024;8.630;2022-09-03T00:49:27;17.50;80.40
17938;DHT22;16051;53.024;8.630;2022-09-03T00:53:42;17.40;80.80
17938;DHT22;16051;53.024;8.630;2022-09-03T01:03:10;17.30;81.50
17938;DHT22;16051;53.024;8.630;2022-09-03T01:07:27;17.20;81.80
17938;DHT22;16051;53.024;8.630;2022-09-03T01:11:42;17.20;82.10
17938;DHT22;16051;53.024;8.630;2022-09-03T01:15:57;17.10;82.50
17938;DHT22;16051;53.024;8.630;2022-09-03T01:20:19;17.00;82.80
17938;DHT22;16051;53.024;8.630;2022-09-03T01:24:43;16.90;83.20
17938;DHT22;16051;53.024;8.630;2022-09-03T01:29:09;16.90;83.50
17938;DHT22;16051;53.024;8.630;2022-09-03T01:33:20;16.90;83.90
17938;DHT22;16051;53.024;8.630;2022-09-03T01:37:37;16.80;84.10
17938;DHT22;16051;53.024;8.630;2022-09-03T01:41:55;16.70;85.10
17938;DHT22;16051;53.024;8.630;2022-09-03T01:46:22;16.70;84.70
17938;DHT22;16051;53.024;8.630;2022-09-03T01:50:42;16.70;85.10
17938;DHT22;16051;53.024;8.630;2022-09-03T01:54:59;16.60;85.40
17938;DHT22;16051;53.024;8.630;2022-09-03T01:59:14;16.60;85.60
17938;DHT22;16051;53.024;8.630;2022-09-03T02:03:32;16.60;86.00
17938;DHT22;16051;53.024;8.630;2022-09-03T02:07:40;16.50;86.30
17938;DHT22;16051;53.024;8.630;2022-09-03T02:11:49;16.40;86.70
17938;DHT22;16051;53.024;8.630;2022-09-03T02:15:59;16.40;86.90
17938;DHT22;16051;53.024;8.630;2022-09-03T02:20:09;16.40;87.40
17938;DHT22;16051;53.024;8.630;2022-09-03T02:24:13;16.30;87.60
17938;DHT22;16051;53.024;8.630;2022-09-03T02:28:15;16.20;88.00
17938;DHT22;16051;53.024;8.630;2022-09-03T02:32:17;16.20;88.50
17938;DHT22;16051;53.024;8.630;2022-09-03T02:36:27;16.20;88.60
17938;DHT22;16051;53.024;8.630;2022-09-03T02:40:32;16.10;88.60
17938;DHT22;16051;53.024;8.630;2022-09-03T02:44:38;16.10;89.10
17938;DHT22;16051;53.024;8.630;2022-09-03T02:48:44;16.10;89.70
17938;DHT22;16051;53.024;8.630;2022-09-03T02:52:48;16.00;90.00
17938;DHT22;16051;53.024;8.630;2022-09-03T02:56:51;16.00;90.10
17938;DHT22;16051;53.024;8.630;2022-09-03T03:00:53;15.90;90.20
17938;DHT22;16051;53.024;8.630;2022-09-03T03:05:00;15.90;90.40
17938;DHT22;16051;53.024;8.630;2022-09-03T03:09:03;15.90;90.60
17938;DHT22;16051;53.024;8.630;2022-09-03T03:13:06;15.80;90.70
17938;DHT22;16051;53.024;8.630;2022-09-03T03:17:08;15.70;90.80
17938;DHT22;16051;53.024;8.630;2022-09-03T03:21:12;15.70;91.00
17938;DHT22;16051;53.024;8.630;2022-09-03T03:25:17;15.70;91.20
17938;DHT22;16051;53.024;8.630;2022-09-03T03:29:19;15.70;91.30
17938;DHT22;16051;53.024;8.630;2022-09-03T03:33:23;15.60;91.50
17938;DHT22;16051;53.024;8.630;2022-09-03T03:37:25;15.60;91.60
17938;DHT22;16051;53.024;8.630;2022-09-03T03:41:30;15.50;91.80
17938;DHT22;16051;53.024;8.630;2022-09-03T03:45:34;15.50;91.90
17938;DHT22;16051;53.024;8.630;2022-09-03T03:49:36;15.40;92.10
17938;DHT22;16051;53.024;8.630;2022-09-03T03:53:38;15.40;92.70
17938;DHT22;16051;53.024;8.630;2022-09-03T03:57:42;15.40;92.50
17938;DHT22;16051;53.024;8.630;2022-09-03T04:01:44;15.30;92.60
17938;DHT22;16051;53.024;8.630;2022-09-03T04:05:54;15.30;92.80
17938;DHT22;16051;53.024;8.630;2022-09-03T04:09:56;15.20;93.00
17938;DHT22;16051;53.024;8.630;2022-09-03T04:14:13;15.20;93.20
17938;DHT22;16051;53.024;8.630;2022-09-03T04:18:15;15.20;93.40
17938;DHT22;16051;53.024;8.630;2022-09-03T04:22:17;15.10;93.60
17938;DHT22;16051;53.024;8.630;2022-09-03T04:26:21;15.10;93.70
17938;DHT22;16051;53.024;8.630;2022-09-03T04:30:26;15.10;93.90
17938;DHT22;16051;53.024;8.630;2022-09-03T04:34:28;15.00;94.10
17938;DHT22;16051;53.024;8.630;2022-09-03T04:38:30;15.00;94.30
17938;DHT22;16051;53.024;8.630;2022-09-03T04:42:32;14.90;94.50
17938;DHT22;16051;53.024;8.630;2022-09-03T04:46:36;14.90;94.70
17938;DHT22;16051;53.024;8.630;2022-09-03T04:50:39;14.90;94.80
17938;DHT22;16051;53.024;8.630;2022-09-03T04:54:42;14.80;95.00
17938;DHT22;16051;53.024;8.630;2022-09-03T04:58:45;14.80;95.30
17938;DHT22;16051;53.024;8.630;2022-09-03T05:02:49;14.80;95.50
17938;DHT22;16051;53.024;8.630;2022-09-03T05:06:51;14.80;95.70
17938;DHT22;16051;53.024;8.630;2022-09-03T05:10:57;14.70;95.80
17938;DHT22;16051;53.024;8.630;2022-09-03T05:15:00;14.70;96.10
17938;DHT22;16051;53.024;8.630;2022-09-03T05:19:05;14.70;96.30
17938;DHT22;16051;53.024;8.630;2022-09-03T05:23:08;14.70;96.50
17938;DHT22;16051;53.024;8.630;2022-09-03T05:27:10;14.70;96.60
17938;DHT22;16051;53.024;8.630;2022-09-03T05:31:13;14.70;96.70
17938;DHT22;16051;53.024;8.630;2022-09-03T05:35:53;14.70;96.80
17938;DHT22;16051;53.024;8.630;2022-09-03T05:40:23;14.70;97.00
17938;DHT22;16051;53.024;8.630;2022-09-03T05:44:25;14.80;97.30
17938;DHT22;16051;53.024;8.630;2022-09-03T05:48:28;14.80;97.40
17938;DHT22;16051;53.024;8.630;2022-09-03T05:52:34;14.90;97.50
17938;DHT22;16051;53.024;8.630;2022-09-03T05:56:38;14.90;97.40
17938;DHT22;16051;53.024;8.630;2022-09-03T06:00:40;15.00;97.70
17938;DHT22;16051;53.024;8.630;2022-09-03T06:04:42;15.00;97.70
17938;DHT22;16051;53.024;8.630;2022-09-03T06:08:48;15.10;97.80
17938;DHT22;16051;53.024;8.630;2022-09-03T06:12:51;15.20;97.80
17938;DHT22;16051;53.024;8.630;2022-09-03T06:16:53;15.30;97.90
17938;DHT22;16051;53.024;8.630;2022-09-03T06:20:57;15.30;97.90
17938;DHT22;16051;53.024;8.630;2022-09-03T06:25:19;15.40;97.90
17938;DHT22;16051;53.024;8.630;2022-09-03T06:29:22;15.50;98.00
17938;DHT22;16051;53.024;8.630;2022-09-03T06:33:24;15.60;98.00
17938;DHT22;16051;53.024;8.630;2022-09-03T06:37:26;15.70;98.00
17938;DHT22;16051;53.024;8.630;2022-09-03T06:41:36;15.80;97.90
17938;DHT22;16051;53.024;8.630;2022-09-03T06:45:38;15.90;97.90
17938;DHT22;16051;53.024;8.630;2022-09-03T06:49:40;16.00;97.90
17938;DHT22;16051;53.024;8.630;2022-09-03T06:53:43;16.10;97.80
17938;DHT22;16051;53.024;8.630;2022-09-03T06:57:48;16.20;97.80
17938;DHT22;16051;53.024;8.630;2022-09-03T07:02:07;16.20;97.70
17938;DHT22;16051;53.024;8.630;2022-09-03T07:06:11;16.40;97.80
17938;DHT22;16051;53.024;8.630;2022-09-03T07:10:14;16.60;97.40
17938;DHT22;16051;53.024;8.630;2022-09-03T07:14:21;17.30;99.90
17938;DHT22;16051;53.024;8.630;2022-09-03T07:18:24;17.90;99.90
17938;DHT22;16051;53.024;8.630;2022-09-03T07:22:26;18.10;99.90
17938;DHT22;16051;53.024;8.630;2022-09-03T07:26:30;18.40;98.80
17938;DHT22;16051;53.024;8.630;2022-09-03T07:31:03;18.60;97.60
17938;DHT22;16051;53.024;8.630;2022-09-03T07:35:07;18.90;96.40
17938;DHT22;16051;53.024;8.630;2022-09-03T07:39:10;19.20;95.00
17938;DHT22;16051;53.024;8.630;2022-09-03T07:43:15;19.50;94.70
17938;DHT22;16051;53.024;8.630;2022-09-03T07:47:21;19.70;94.10
17938;DHT22;16051;53.024;8.630;2022-09-03T07:51:27;19.80;94.30
17938;DHT22;16051;53.024;8.630;2022-09-03T08:00:46;20.20;96.60
17938;DHT22;16051;53.024;8.630;2022-09-03T08:05:08;20.20;96.70
17938;DHT22;16051;53.024;8.630;2022-09-03T08:09:11;20.20;96.80
17938;DHT22;16051;53.024;8.630;2022-09-03T08:13:14;20.10;96.30
17938;DHT22;16051;53.024;8.630;2022-09-03T08:17:16;20.00;96.10
17938;DHT22;16051;53.024;8.630;2022-09-03T08:21:19;20.00;96.10
17938;DHT22;16051;53.024;8.630;2022-09-03T08:25:21;19.90;96.40
17938;DHT22;16051;53.024;8.630;2022-09-03T08:29:24;19.90;96.10
17938;DHT22;16051;53.024;8.630;2022-09-03T08:33:26;19.90;95.60
17938;DHT22;16051;53.024;8.630;2022-09-03T08:37:39;19.80;96.00
17938;DHT22;16051;53.024;8.630;2022-09-03T08:42:10;19.80;96.00
17938;DHT22;16051;53.024;8.630;2022-09-03T08:46:42;19.80;96.30
17938;DHT22;16051;53.024;8.630;2022-09-03T08:50:55;19.70;95.50
17938;DHT22;16051;53.024;8.630;2022-09-03T08:55:20;19.60;95.60
17938;DHT22;16051;53.024;8.630;2022-09-03T08:59:27;19.70;95.40
17938;DHT22;16051;53.024;8.630;2022-09-03T09:03:47;19.60;95.30
17938;DHT22;16051;53.024;8.630;2022-09-03T09:08:05;19.60;95.40
17938;DHT22;16051;53.024;8.630;2022-09-03T09:12:31;19.70;95.00
17938;DHT22;16051;53.024;8.630;2022-09-03T09:16:46;19.80;94.80
17938;DHT22;16051;53.024;8.630;2022-09-03T09:20:58;19.80;94.70
17938;DHT22;16051;53.024;8.630;2022-09-03T09:25:12;19.80;93.40
17938;DHT22;16051;53.024;8.630;2022-09-03T09:29:18;19.90;92.20
17938;DHT22;16051;53.024;8.630;2022-09-03T09:33:21;20.00;91.00
17938;DHT22;16051;53.024;8.630;2022-09-03T09:37:24;20.20;90.50
17938;DHT22;16051;53.024;8.630;2022-09-03T09:41:27;20.30;90.00
17938;DHT22;16051;53.024;8.630;2022-09-03T09:45:41;20.50;88.70
17938;DHT22;16051;53.024;8.630;2022-09-03T09:49:52;20.70;88.10
17938;DHT22;16051;53.024;8.630;2022-09-03T09:54:03;21.00;85.60
17938;DHT22;16051;53.024;8.630;2022-09-03T09:58:21;21.30;90.30
17938;DHT22;16051;53.024;8.630;2022-09-03T10:02:27;21.60;86.40
17938;DHT22;16051;53.024;8.630;2022-09-03T10:06:30;21.90;83.80
17938;DHT22;16051;53.024;8.630;2022-09-03T10:10:51;22.30;84.30
17938;DHT22;16051;53.024;8.630;2022-09-03T10:14:58;23.00;90.10
17938;DHT22;16051;53.024;8.630;2022-09-03T10:19:18;24.10;82.70
17938;DHT22;16051;53.024;8.630;2022-09-03T10:23:26;24.80;74.70
17938;DHT22;16051;53.024;8.630;2022-09-03T10:27:30;25.60;70.50
17938;DHT22;16051;53.024;8.630;2022-09-03T10:31:49;26.40;66.30
17938;DHT22;16051;53.024;8.630;2022-09-03T10:36:09;27.20;64.60
17938;DHT22;16051;53.024;8.630;2022-09-03T10:40:24;27.20;62.40
17938;DHT22;16051;53.024;8.630;2022-09-03T10:44:43;27.70;60.20
17938;DHT22;16051;53.024;8.630;2022-09-03T10:49:22;28.20;58.70
17938;DHT22;16051;53.024;8.630;2022-09-03T10:53:43;28.20;57.70
17938;DHT22;16051;53.024;8.630;2022-09-03T11:02:53;29.00;56.50
17938;DHT22;16051;53.024;8.630;2022-09-03T11:07:11;29.20;55.20
17938;DHT22;16051;53.024;8.630;2022-09-03T11:11:18;29.50;54.50
17938;DHT22;16051;53.024;8.630;2022-09-03T11:15:28;29.40;54.20
17938;DHT22;16051;53.024;8.630;2022-09-03T11:19:54;28.70;53.60
17938;DHT22;16051;53.024;8.630;2022-09-03T11:24:08;28.20;54.40
17938;DHT22;16051;53.024;8.630;2022-09-03T11:28:26;28.50;55.50
17938;DHT22;16051;53.024;8.630;2022-09-03T11:32:46;28.50;54.20
17938;DHT22;16051;53.024;8.630;2022-09-03T11:37:04;28.60;54.50
17938;DHT22;16051;53.024;8.630;2022-09-03T11:41:23;28.90;54.80
17938;DHT22;16051;53.024;8.630;2022-09-03T11:45:35;28.90;54.20
17938;DHT22;16051;53.024;8.630;2022-09-03T11:49:44;29.10;54.50
17938;DHT22;16051;53.024;8.630;2022-09-03T11:53:54;28.70;53.90
17938;DHT22;16051;53.024;8.630;2022-09-03T11:57:58;28.90;53.60
17938;DHT22;16051;53.024;8.630;2022-09-03T12:02:22;29.10;54.20
17938;DHT22;16051;53.024;8.630;2022-09-03T12:06:58;29.00;53.30
17938;DHT22;16051;53.024;8.630;2022-09-03T12:11:25;29.30;53.00
17938;DHT22;16051;53.024;8.630;2022-09-03T12:20:27;29.30;52.60
17938;DHT22;16051;53.024;8.630;2022-09-03T12:24:29;29.30;52.90
17938;DHT22;16051;53.024;8.630;2022-09-03T12:28:37;29.50;51.90
17938;DHT22;16051;53.024;8.630;2022-09-03T12:32:40;29.80;51.50
17938;DHT22;16051;53.024;8.630;2022-09-03T12:36:46;30.00;51.50
17938;DHT22;16051;53.024;8.630;2022-09-03T12:40:50;29.80;51.20
17938;DHT22;16051;53.024;8.630;2022-09-03T12:44:52;30.70;50.40
17938;DHT22;16051;53.024;8.630;2022-09-03T12:48:56;32.30;48.30
17938;DHT22;16051;53.024;8.630;2022-09-03T12:53:08;32.20;47.20
17938;DHT22;16051;53.024;8.630;2022-09-03T12:57:23;31.80;47.80
17938;DHT22;16051;53.024;8.630;2022-09-03T13:01:32;31.20;47.90
17938;DHT22;16051;53.024;8.630;2022-09-03T13:05:49;30.20;48.80
17938;DHT22;16051;53.024;8.630;2022-09-03T13:10:01;30.10;49.10
17938;DHT22;16051;53.024;8.630;2022-09-03T13:14:26;30.10;49.90
17938;DHT22;16051;53.024;8.630;2022-09-03T13:18:32;30.40;49.50
17938;DHT22;16051;53.024;8.630;2022-09-03T13:23:13;30.10;49.10
17938;DHT22;16051;53.024;8.630;2022-09-03T13:27:50;29.90;48.50
17938;DHT22;16051;53.024;8.630;2022-09-03T13:32:09;29.90;49.20
17938;DHT22;16051;53.024;8.630;2022-09-03T13:36:21;29.90;48.30
17938;DHT22;16051;53.024;8.630;2022-09-03T13:40:35;29.70;49.00
17938;DHT22;16051;53.024;8.630;2022-09-03T13:44:47;29.70;48.80
17938;DHT22;16051;53.024;8.630;2022-09-03T13:48:58;29.70;49.00
17938;DHT22;16051;53.024;8.630;2022-09-03T13:53:35;29.60;48.60
17938;DHT22;16051;53.024;8.630;2022-09-03T13:57:51;29.40;48.50
17938;DHT22;16051;53.024;8.630;2022-09-03T14:02:10;29.30;49.10
17938;DHT22;16051;53.024;8.630;2022-09-03T14:06:36;29.10;49.30
17938;DHT22;16051;53.024;8.630;2022-09-03T14:10:56;29.30;49.50
17938;DHT22;16051;53.024;8.630;2022-09-03T14:15:09;29.00;48.90
17938;DHT22;16051;53.024;8.630;2022-09-03T14:19:30;29.10;48.40
17938;DHT22;16051;53.024;8.630;2022-09-03T14:23:44;29.00;49.40
17938;DHT22;16051;53.024;8.630;2022-09-03T14:28:12;28.90;49.20
17938;DHT22;16051;53.024;8.630;2022-09-03T14:32:30;28.80;49.80
17938;DHT22;16051;53.024;8.630;2022-09-03T14:36:46;29.00;49.20
17938;DHT22;16051;53.024;8.630;2022-09-03T14:41:06;28.30;49.90
17938;DHT22;16051;53.024;8.630;2022-09-03T14:50:21;28.50;50.40
17938;DHT22;16051;53.024;8.630;2022-09-03T15:00:01;28.20;49.80
17938;DHT22;16051;53.024;8.630;2022-09-03T15:04:32;28.30;50.70
17938;DHT22;16051;53.024;8.630;2022-09-03T15:08:56;28.40;50.60
17938;DHT22;16051;53.024;8.630;2022-09-03T15:13:17;28.40;49.60
17938;DHT22;16051;53.024;8.630;2022-09-03T15:17:38;28.20;50.00
17938;DHT22;16051;53.024;8.630;2022-09-03T15:21:58;28.10;50.80
17938;DHT22;16051;53.024;8.630;2022-09-03T15:26:46;27.90;50.80
17938;DHT22;16051;53.024;8.630;2022-09-03T15:31:01;27.80;50.80
17938;DHT22;16051;53.024;8.630;2022-09-03T15:35:24;27.80;51.00
17938;DHT22;16051;53.024;8.630;2022-09-03T15:39:40;27.60;50.80
17938;DHT22;16051;53.024;8.630;2022-09-03T15:43:48;27.50;51.60
17938;DHT22;16051;53.024;8.630;2022-09-03T15:47:53;27.30;50.60
17938;DHT22;16051;53.024;8.630;2022-09-03T15:52:09;27.30;51.20
17938;DHT22;16051;53.024;8.630;2022-09-03T15:56:34;27.20;51.60
17938;DHT22;16051;53.024;8.630;2022-09-03T16:00:52;27.10;51.80
17938;DHT22;16051;53.024;8.630;2022-09-03T16:05:07;27.00;52.70
17938;DHT22;16051;53.024;8.630;2022-09-03T16:09:28;26.90;51.80
17938;DHT22;16051;53.024;8.630;2022-09-03T16:13:47;26.80;52.50
17938;DHT22;16051;53.024;8.630;2022-09-03T16:18:02;26.60;51.90
17938;DHT22;16051;53.024;8.630;2022-09-03T16:22:13;26.50;52.10
17938;DHT22;16051;53.024;8.630;2022-09-03T16:26:28;26.40;53.10
17938;DHT22;16051;53.024;8.630;2022-09-03T16:30:50;26.30;52.20
17938;DHT22;16051;53.024;8.630;2022-09-03T16:35:13;26.00;52.80
17938;DHT22;16051;53.024;8.630;2022-09-03T16:39:29;25.90;53.60
17938;DHT22;16051;53.024;8.630;2022-09-03T16:44:02;25.90;53.30
17938;DHT22;16051;53.024;8.630;2022-09-03T16:48:21;25.90;53.60
17938;DHT22;16051;53.024;8.630;2022-09-03T16:52:32;25.80;53.80
17938;DHT22;16051;53.024;8.630;2022-09-03T16:56:52;25.90;53.70
17938;DHT22;16051;53.024;8.630;2022-09-03T17:01:11;25.70;54.00
17938;DHT22;16051;53.024;8.630;2022-09-03T17:10:12;25.40;54.10
17938;DHT22;16051;53.024;8.630;2022-09-03T17:14:41;25.20;55.00
17938;DHT22;16051;53.024;8.630;2022-09-03T17:19:07;25.10;55.40
17938;DHT22;16051;53.024;8.630;2022-09-03T17:23:47;25.50;56.40
17938;DHT22;16051;53.024;8.630;2022-09-03T17:28:20;25.50;56.90
17938;DHT22;16051;53.024;8.630;2022-09-03T17:37:39;25.10;56.90
17938;DHT22;16051;53.024;8.630;2022-09-03T17:41:51;24.90;57.00
17938;DHT22;16051;53.024;8.630;2022-09-03T17:46:10;24.80;57.10
17938;DHT22;16051;53.024;8.630;2022-09-03T17:50:27;24.70;57.20
17938;DHT22;16051;53.024;8.630;2022-09-03T17:54:48;24.70;57.40
17938;DHT22;16051;53.024;8.630;2022-09-03T17:59:15;24.60;57.50
17938;DHT22;16051;53.024;8.630;2022-09-03T18:03:33;24.50;58.10
17938;DHT22;16051;53.024;8.630;2022-09-03T18:07:46;24.40;58.00
17938;DHT22;16051;53.024;8.630;2022-09-03T18:12:06;24.20;58.20
17938;DHT22;16051;53.024;8.630;2022-09-03T18:21:04;24.00;58.80
17938;DHT22;16051;53.024;8.630;2022-09-03T18:25:32;23.90;58.90
17938;DHT22;16051;53.024;8.630;2022-09-03T18:30:03;23.80;59.00
17938;DHT22;16051;53.024;8.630;2022-09-03T18:34:30;23.60;58.70
17938;DHT22;16051;53.024;8.630;2022-09-03T18:38:51;23.50;58.40
17938;DHT22;16051;53.024;8.630;2022-09-03T18:43:18;23.40;58.40
17938;DHT22;16051;53.024;8.630;2022-09-03T18:47:56;23.30;58.00
17938;DHT22;16051;53.024;8.630;2022-09-03T18:52:31;23.20;57.80
17938;DHT22;16051;53.024;8.630;2022-09-03T18:57:04;23.10;57.70
17938;DHT22;16051;53.024;8.630;2022-09-03T19:01:34;23.00;57.60
17938;DHT22;16051;53.024;8.630;2022-09-03T19:06:34;22.90;57.60
17938;DHT22;16051;53.024;8.630;2022-09-03T19:11:03;22.80;57.60
17938;DHT22;16051;53.024;8.630;2022-09-03T19:15:50;22.70;57.60
17938;DHT22;16051;53.024;8.630;2022-09-03T19:20:18;22.60;57.80
17938;DHT22;16051;53.024;8.630;2022-09-03T19:24:52;22.50;58.00
17938;DHT22;16051;53.024;8.630;2022-09-03T19:29:28;22.40;58.10
17938;DHT22;16051;53.024;8.630;2022-09-03T19:34:06;22.30;58.30
17938;DHT22;16051;53.024;8.630;2022-09-03T19:38:44;22.20;58.40
17938;DHT22;16051;53.024;8.630;2022-09-03T19:43:23;22.10;58.30
17938;DHT22;16051;53.024;8.630;2022-09-03T19:48:00;22.00;58.30
17938;DHT22;16051;53.024;8.630;2022-09-03T19:52:53;21.90;58.50
17938;DHT22;16051;53.024;8.630;2022-09-03T19:57:16;21.80;58.60
17938;DHT22;16051;53.024;8.630;2022-09-03T20:01:58;21.80;58.90
17938;DHT22;16051;53.024;8.630;2022-09-03T20:06:20;21.70;58.90
17938;DHT22;16051;53.024;8.630;2022-09-03T20:10:49;21.60;59.10
17938;DHT22;16051;53.024;8.630;2022-09-03T20:15:02;21.60;59.10
17938;DHT22;16051;53.024;8.630;2022-09-03T20:19:15;21.50;59.30
17938;DHT22;16051;53.024;8.630;2022-09-03T20:23:44;21.40;59.20
17938;DHT22;16051;53.024;8.630;2022-09-03T20:28:06;21.30;59.40
17938;DHT22;16051;53.024;8.630;2022-09-03T20:32:31;21.30;60.20
17938;DHT22;16051;53.024;8.630;2022-09-03T20:36:56;21.20;59.80
17938;DHT22;16051;53.024;8.630;2022-09-03T20:41:18;21.10;59.80
17938;DHT22;16051;53.024;8.630;2022-09-03T20:45:31;21.00;59.80
17938;DHT22;16051;53.024;8.630;2022-09-03T20:49:45;21.00;59.70
17938;DHT22;16051;53.024;8.630;2022-09-03T20:54:12;20.90;60.40
17938;DHT22;16051;53.024;8.630;2022-09-03T20:58:27;20.80;60.70
17938;DHT22;16051;53.024;8.630;2022-09-03T21:03:13;20.70;61.00
17938;DHT22;16051;53.024;8.630;2022-09-03T21:07:28;20.60;61.20
17938;DHT22;16051;53.024;8.630;2022-09-03T21:11:42;20.60;61.60
17938;DHT22;16051;53.024;8.630;2022-09-03T21:15:53;20.40;61.80
17938;DHT22;16051;53.024;8.630;2022-09-03T21:20:12;20.40;62.00
17938;DHT22;16051;53.024;8.630;2022-09-03T21:24:26;20.30;62.50
17938;DHT22;16051;53.024;8.630;2022-09-03T21:28:38;20.20;62.60
17938;DHT22;16051;53.024;8.630;2022-09-03T21:32:45;20.10;62.70
17938;DHT22;16051;53.024;8.630;2022-09-03T21:37:00;20.00;63.00
17938;DHT22;16051;53.024;8.630;2022-09-03T21:41:14;20.00;63.20
17938;DHT22;16051;53.024;8.630;2022-09-03T21:45:29;19.90;63.50
17938;DHT22;16051;53.024;8.630;2022-09-03T21:49:39;19.90;63.80
17938;DHT22;16051;53.024;8.630;2022-09-03T21:53:54;19.80;64.00
17938;DHT22;16051;53.024;8.630;2022-09-03T21:58:10;19.70;64.10
17938;DHT22;16051;53.024;8.630;2022-09-03T22:02:23;19.70;64.70
17938;DHT22;16051;53.024;8.630;2022-09-03T22:06:32;19.60;65.00
17938;DHT22;16051;53.024;8.630;2022-09-03T22:10:51;19.50;65.20
17938;DHT22;16051;53.024;8.630;2022-09-03T22:15:00;19.40;65.40
17938;DHT22;16051;53.024;8.630;2022-09-03T22:19:14;19.30;65.60
17938;DHT22;16051;53.024;8.630;2022-09-03T22:23:43;19.20;66.00
17938;DHT22;16051;53.024;8.630;2022-09-03T22:28:04;19.20;66.50
17938;DHT22;16051;53.024;8.630;2022-09-03T22:32:22;19.10;67.00
17938;DHT22;16051;53.024;8.630;2022-09-03T22:36:39;19.00;67.10
17938;DHT22;16051;53.024;8.630;2022-09-03T22:40:49;18.90;67.40
17938;DHT22;16051;53.024;8.630;2022-09-03T22:45:14;18.90;67.80
17938;DHT22;16051;53.024;8.630;2022-09-03T22:49:36;18.70;68.20
17938;DHT22;16051;53.024;8.630;2022-09-03T22:54:00;18.60;68.30
17938;DHT22;16051;53.024;8.630;2022-09-03T22:58:13;18.60;68.70
17938;DHT22;16051;53.024;8.630;2022-09-03T23:02:21;18.50;68.60
17938;DHT22;16051;53.024;8.630;2022-09-03T23:06:44;18.50;69.00
17938;DHT22;16051;53.024;8.630;2022-09-03T23:10:59;18.40;69.40
17938;DHT22;16051;53.024;8.630;2022-09-03T23:15:08;18.30;69.80
17938;DHT22;16051;53.024;8.630;2022-09-03T23:19:19;18.30;70.10
17938;DHT22;16051;53.024;8.630;2022-09-03T23:23:57;18.20;70.20
17938;DHT22;16051;53.024;8.630;2022-09-03T23:28:08;18.10;70.60
17938;DHT22;16051;53.024;8.630;2022-09-03T23:32:18;18.00;70.80
17938;DHT22;16051;53.024;8.630;2022-09-03T23:36:31;18.00;71.00
17938;DHT22;16051;53.024;8.630;2022-09-03T23:40:46;17.90;71.20
17938;DHT22;16051;53.024;8.630;2022-09-03T23:45:02;17.90;71.60
17938;DHT22;16051;53.024;8.630;2022-09-03T23:49:24;17.80;71.70
17938;DHT22;16051;53.024;8.630;2022-09-03T23:53:46;17.70;71.90
17938;DHT22;16051;53.024;8.630;2022-09-03T23:58:09;17.70;72.20
